KLCK/LCK METAR and TAF weather

Enter ICAO airport designator
Station Type Date Time Source
KLCK METAR 2021/05/11 00:55 UTC NOAA

KLCK 110055Z AUTO 00000KT 10SM CLR 12/04 A3012 RMK AO2 T01210036


Station Type Date Time Source
KLCK Decoded METAR 2021/05/11 00:55 UTC NOAA

Rickenbacker Air National Guard Base, OH, United States (KLCK) 39-49N 082-56W
May 10, 2021 - 08:55 PM EDT / 2021.05.11 0055 UTC
Wind: Calm:0
Visibility: 10 mile(s):0
Sky conditions: clear
Temperature: 53.8 F (12.1 C)
Dew Point: 38.5 F (3.6 C)
Relative Humidity: 56%
Pressure (altimeter): 30.12 in. Hg (1019 hPa)
ob: KLCK 110055Z AUTO 00000KT 10SM CLR 12/04 A3012 RMK AO2 T01210036
cycle: 1

Station Type Date Time Source
KLCK TAF 2021/05/10 18:59 UTC NOAA

TAF KLCK 101738Z 1018/1118 32005KT P6SM SCT050
FM110000 30003KT P6SM BKN070
FM110300 29003KT P6SM SCT060
FM110700 32004KT P6SM BKN060
FM111700 32009KT P6SM SCT070

Example: see airport list